sensor_id;sensor_type;location;lat;lon;timestamp;P1;durP1;ratioP1;P2;durP2;ratioP2
679;SDS011;322;48.846;9.230;2023-08-24T00:00:23;14.67;;;10.17;;
679;SDS011;322;48.846;9.230;2023-08-24T00:02:51;15.57;;;10.00;;
679;SDS011;322;48.846;9.230;2023-08-24T00:05:21;14.80;;;10.60;;
679;SDS011;322;48.846;9.230;2023-08-24T00:07:48;15.03;;;10.20;;
679;SDS011;322;48.846;9.230;2023-08-24T00:10:18;13.33;;;8.90;;
679;SDS011;322;48.846;9.230;2023-08-24T00:12:46;13.63;;;9.83;;
679;SDS011;322;48.846;9.230;2023-08-24T00:15:16;15.40;;;10.50;;
679;SDS011;322;48.846;9.230;2023-08-24T00:17:44;14.90;;;10.90;;
679;SDS011;322;48.846;9.230;2023-08-24T00:20:12;14.43;;;9.83;;
679;SDS011;322;48.846;9.230;2023-08-24T00:22:41;18.50;;;10.17;;
679;SDS011;322;48.846;9.230;2023-08-24T00:25:09;17.17;;;10.93;;
679;SDS011;322;48.846;9.230;2023-08-24T00:27:38;14.20;;;11.40;;
679;SDS011;322;48.846;9.230;2023-08-24T00:30:07;14.30;;;10.90;;
679;SDS011;322;48.846;9.230;2023-08-24T00:32:35;14.97;;;10.90;;
679;SDS011;322;48.846;9.230;2023-08-24T00:35:04;14.40;;;10.60;;
679;SDS011;322;48.846;9.230;2023-08-24T00:37:33;15.07;;;11.03;;
679;SDS011;322;48.846;9.230;2023-08-24T00:40:04;14.40;;;11.80;;
679;SDS011;322;48.846;9.230;2023-08-24T00:42:37;16.00;;;12.27;;
679;SDS011;322;48.846;9.230;2023-08-24T00:45:06;16.23;;;11.80;;
679;SDS011;322;48.846;9.230;2023-08-24T00:47:36;17.40;;;10.97;;
679;SDS011;322;48.846;9.230;2023-08-24T00:50:05;18.17;;;10.50;;
679;SDS011;322;48.846;9.230;2023-08-24T00:52:35;15.07;;;11.30;;
679;SDS011;322;48.846;9.230;2023-08-24T00:55:07;15.50;;;11.00;;
679;SDS011;322;48.846;9.230;2023-08-24T00:57:37;15.10;;;12.00;;
679;SDS011;322;48.846;9.230;2023-08-24T01:00:05;15.20;;;11.70;;
679;SDS011;322;48.846;9.230;2023-08-24T01:02:36;15.73;;;11.50;;
679;SDS011;322;48.846;9.230;2023-08-24T01:05:04;17.30;;;11.63;;
679;SDS011;322;48.846;9.230;2023-08-24T01:07:33;17.07;;;11.80;;
679;SDS011;322;48.846;9.230;2023-08-24T01:10:02;17.10;;;10.30;;
679;SDS011;322;48.846;9.230;2023-08-24T01:12:36;16.80;;;11.80;;
679;SDS011;322;48.846;9.230;2023-08-24T01:15:23;14.93;;;11.33;;
679;SDS011;322;48.846;9.230;2023-08-24T01:18:03;18.30;;;12.53;;
679;SDS011;322;48.846;9.230;2023-08-24T01:20:33;15.23;;;11.00;;
679;SDS011;322;48.846;9.230;2023-08-24T01:23:04;15.77;;;11.50;;
679;SDS011;322;48.846;9.230;2023-08-24T01:25:40;17.03;;;10.30;;
679;SDS011;322;48.846;9.230;2023-08-24T01:28:17;17.80;;;10.60;;
679;SDS011;322;48.846;9.230;2023-08-24T01:30:46;15.10;;;10.80;;
679;SDS011;322;48.846;9.230;2023-08-24T01:33:15;15.43;;;11.50;;
679;SDS011;322;48.846;9.230;2023-08-24T01:35:43;14.77;;;10.43;;
679;SDS011;322;48.846;9.230;2023-08-24T01:38:11;19.47;;;10.17;;
679;SDS011;322;48.846;9.230;2023-08-24T01:40:44;16.40;;;11.27;;
679;SDS011;322;48.846;9.230;2023-08-24T01:43:18;18.10;;;10.43;;
679;SDS011;322;48.846;9.230;2023-08-24T01:46:07;17.70;;;11.10;;
679;SDS011;322;48.846;9.230;2023-08-24T01:48:35;15.43;;;10.33;;
679;SDS011;322;48.846;9.230;2023-08-24T01:51:04;14.00;;;10.10;;
679;SDS011;322;48.846;9.230;2023-08-24T01:53:34;16.33;;;10.10;;
679;SDS011;322;48.846;9.230;2023-08-24T01:56:07;13.87;;;11.37;;
679;SDS011;322;48.846;9.230;2023-08-24T01:58:37;15.60;;;11.17;;
679;SDS011;322;48.846;9.230;2023-08-24T02:01:05;13.90;;;10.97;;
679;SDS011;322;48.846;9.230;2023-08-24T02:03:35;18.47;;;11.53;;
679;SDS011;322;48.846;9.230;2023-08-24T02:06:05;13.60;;;11.00;;
679;SDS011;322;48.846;9.230;2023-08-24T02:08:34;15.73;;;10.87;;
679;SDS011;322;48.846;9.230;2023-08-24T02:11:02;17.97;;;10.77;;
679;SDS011;322;48.846;9.230;2023-08-24T02:13:30;14.30;;;11.00;;
679;SDS011;322;48.846;9.230;2023-08-24T02:16:03;15.60;;;11.10;;
679;SDS011;322;48.846;9.230;2023-08-24T02:18:31;17.53;;;12.00;;
679;SDS011;322;48.846;9.230;2023-08-24T02:21:00;15.77;;;11.50;;
679;SDS011;322;48.846;9.230;2023-08-24T02:23:33;14.67;;;11.20;;
679;SDS011;322;48.846;9.230;2023-08-24T02:26:01;16.90;;;11.47;;
679;SDS011;322;48.846;9.230;2023-08-24T02:28:30;15.53;;;11.40;;
679;SDS011;322;48.846;9.230;2023-08-24T02:30:59;15.63;;;12.40;;
679;SDS011;322;48.846;9.230;2023-08-24T02:33:29;15.87;;;11.73;;
679;SDS011;322;48.846;9.230;2023-08-24T02:35:57;13.80;;;10.57;;
679;SDS011;322;48.846;9.230;2023-08-24T02:38:25;14.97;;;12.00;;
679;SDS011;322;48.846;9.230;2023-08-24T02:41:00;15.27;;;11.97;;
679;SDS011;322;48.846;9.230;2023-08-24T02:43:29;15.13;;;12.07;;
679;SDS011;322;48.846;9.230;2023-08-24T02:46:00;15.40;;;11.63;;
679;SDS011;322;48.846;9.230;2023-08-24T02:48:31;14.93;;;12.13;;
679;SDS011;322;48.846;9.230;2023-08-24T02:50:59;15.53;;;11.23;;
679;SDS011;322;48.846;9.230;2023-08-24T02:53:29;15.23;;;11.20;;
679;SDS011;322;48.846;9.230;2023-08-24T02:55:57;16.77;;;12.57;;
679;SDS011;322;48.846;9.230;2023-08-24T02:58:25;15.50;;;12.50;;
679;SDS011;322;48.846;9.230;2023-08-24T03:00:54;17.50;;;12.73;;
679;SDS011;322;48.846;9.230;2023-08-24T03:03:22;17.47;;;12.10;;
679;SDS011;322;48.846;9.230;2023-08-24T03:05:56;18.57;;;12.57;;
679;SDS011;322;48.846;9.230;2023-08-24T03:08:25;16.23;;;11.70;;
679;SDS011;322;48.846;9.230;2023-08-24T03:10:53;16.00;;;12.23;;
679;SDS011;322;48.846;9.230;2023-08-24T03:13:21;16.50;;;12.00;;
679;SDS011;322;48.846;9.230;2023-08-24T03:15:49;15.27;;;12.37;;
679;SDS011;322;48.846;9.230;2023-08-24T03:18:18;16.87;;;13.83;;
679;SDS011;322;48.846;9.230;2023-08-24T03:20:47;17.37;;;12.80;;
679;SDS011;322;48.846;9.230;2023-08-24T03:23:17;18.20;;;14.13;;
679;SDS011;322;48.846;9.230;2023-08-24T03:25:45;16.50;;;13.23;;
679;SDS011;322;48.846;9.230;2023-08-24T03:28:13;17.63;;;12.97;;
679;SDS011;322;48.846;9.230;2023-08-24T03:30:45;18.60;;;14.07;;
679;SDS011;322;48.846;9.230;2023-08-24T03:33:14;16.77;;;13.50;;
679;SDS011;322;48.846;9.230;2023-08-24T03:35:42;16.90;;;12.90;;
679;SDS011;322;48.846;9.230;2023-08-24T03:38:10;16.10;;;12.10;;
679;SDS011;322;48.846;9.230;2023-08-24T03:40:39;16.77;;;13.10;;
679;SDS011;322;48.846;9.230;2023-08-24T03:43:07;15.50;;;12.23;;
679;SDS011;322;48.846;9.230;2023-08-24T03:45:35;17.33;;;13.67;;
679;SDS011;322;48.846;9.230;2023-08-24T03:48:04;16.37;;;13.23;;
679;SDS011;322;48.846;9.230;2023-08-24T03:50:32;15.40;;;12.40;;
679;SDS011;322;48.846;9.230;2023-08-24T03:53:00;23.47;;;13.57;;
679;SDS011;322;48.846;9.230;2023-08-24T03:55:28;16.80;;;13.23;;
679;SDS011;322;48.846;9.230;2023-08-24T03:57:57;17.40;;;12.07;;
679;SDS011;322;48.846;9.230;2023-08-24T04:00:25;14.90;;;12.40;;
679;SDS011;322;48.846;9.230;2023-08-24T04:02:53;16.30;;;13.40;;
679;SDS011;322;48.846;9.230;2023-08-24T04:05:21;15.43;;;12.40;;
679;SDS011;322;48.846;9.230;2023-08-24T04:07:49;14.37;;;11.50;;
679;SDS011;322;48.846;9.230;2023-08-24T04:10:18;16.63;;;11.30;;
679;SDS011;322;48.846;9.230;2023-08-24T04:12:46;17.80;;;12.87;;
679;SDS011;322;48.846;9.230;2023-08-24T04:15:15;18.17;;;12.80;;
679;SDS011;322;48.846;9.230;2023-08-24T04:17:43;14.73;;;11.37;;
679;SDS011;322;48.846;9.230;2023-08-24T04:20:11;17.77;;;12.20;;
679;SDS011;322;48.846;9.230;2023-08-24T04:22:39;13.97;;;10.57;;
679;SDS011;322;48.846;9.230;2023-08-24T04:25:07;14.90;;;10.50;;
679;SDS011;322;48.846;9.230;2023-08-24T04:27:36;16.03;;;9.80;;
679;SDS011;322;48.846;9.230;2023-08-24T04:30:04;15.20;;;10.23;;
679;SDS011;322;48.846;9.230;2023-08-24T04:32:39;15.50;;;9.90;;
679;SDS011;322;48.846;9.230;2023-08-24T04:35:07;13.33;;;9.77;;
679;SDS011;322;48.846;9.230;2023-08-24T04:37:36;13.67;;;9.87;;
679;SDS011;322;48.846;9.230;2023-08-24T04:40:05;13.40;;;10.47;;
679;SDS011;322;48.846;9.230;2023-08-24T04:42:34;14.20;;;10.43;;
679;SDS011;322;48.846;9.230;2023-08-24T04:45:02;14.10;;;10.20;;
679;SDS011;322;48.846;9.230;2023-08-24T04:47:30;16.83;;;10.97;;
679;SDS011;322;48.846;9.230;2023-08-24T04:50:00;13.50;;;9.83;;
679;SDS011;322;48.846;9.230;2023-08-24T04:52:28;17.00;;;10.30;;
679;SDS011;322;48.846;9.230;2023-08-24T04:54:56;13.30;;;9.70;;
679;SDS011;322;48.846;9.230;2023-08-24T04:57:24;13.93;;;9.83;;
679;SDS011;322;48.846;9.230;2023-08-24T04:59:52;13.90;;;9.30;;
679;SDS011;322;48.846;9.230;2023-08-24T05:02:20;16.20;;;11.50;;
679;SDS011;322;48.846;9.230;2023-08-24T05:04:48;15.10;;;10.73;;
679;SDS011;322;48.846;9.230;2023-08-24T05:07:17;15.87;;;10.97;;
679;SDS011;322;48.846;9.230;2023-08-24T05:09:45;13.73;;;10.90;;
679;SDS011;322;48.846;9.230;2023-08-24T05:12:13;16.93;;;11.80;;
679;SDS011;322;48.846;9.230;2023-08-24T05:14:41;16.37;;;11.10;;
679;SDS011;322;48.846;9.230;2023-08-24T05:17:09;15.27;;;11.07;;
679;SDS011;322;48.846;9.230;2023-08-24T05:19:37;14.60;;;10.57;;
679;SDS011;322;48.846;9.230;2023-08-24T05:22:05;12.90;;;10.43;;
679;SDS011;322;48.846;9.230;2023-08-24T05:24:34;15.30;;;10.90;;
679;SDS011;322;48.846;9.230;2023-08-24T05:27:02;16.53;;;11.73;;
679;SDS011;322;48.846;9.230;2023-08-24T05:29:30;16.83;;;11.03;;
679;SDS011;322;48.846;9.230;2023-08-24T05:31:58;16.00;;;11.37;;
679;SDS011;322;48.846;9.230;2023-08-24T05:34:26;20.07;;;10.63;;
679;SDS011;322;48.846;9.230;2023-08-24T05:36:54;14.73;;;11.27;;
679;SDS011;322;48.846;9.230;2023-08-24T05:39:22;16.80;;;11.30;;
679;SDS011;322;48.846;9.230;2023-08-24T05:41:52;15.20;;;11.37;;
679;SDS011;322;48.846;9.230;2023-08-24T05:44:20;13.70;;;11.37;;
679;SDS011;322;48.846;9.230;2023-08-24T05:46:48;15.70;;;10.60;;
679;SDS011;322;48.846;9.230;2023-08-24T05:49:16;14.97;;;10.77;;
679;SDS011;322;48.846;9.230;2023-08-24T05:51:44;14.33;;;10.47;;
679;SDS011;322;48.846;9.230;2023-08-24T05:54:12;15.90;;;10.30;;
679;SDS011;322;48.846;9.230;2023-08-24T05:56:44;14.23;;;10.90;;
679;SDS011;322;48.846;9.230;2023-08-24T05:59:14;14.33;;;10.30;;
679;SDS011;322;48.846;9.230;2023-08-24T06:01:42;14.80;;;9.70;;
679;SDS011;322;48.846;9.230;2023-08-24T06:04:10;14.50;;;9.67;;
679;SDS011;322;48.846;9.230;2023-08-24T06:06:38;14.57;;;9.80;;
679;SDS011;322;48.846;9.230;2023-08-24T06:09:06;12.73;;;9.60;;
679;SDS011;322;48.846;9.230;2023-08-24T06:11:36;33.23;;;10.97;;
679;SDS011;322;48.846;9.230;2023-08-24T06:14:08;12.50;;;9.30;;
679;SDS011;322;48.846;9.230;2023-08-24T06:16:37;16.97;;;9.90;;
679;SDS011;322;48.846;9.230;2023-08-24T06:19:05;14.73;;;9.57;;
679;SDS011;322;48.846;9.230;2023-08-24T06:21:33;15.40;;;10.27;;
679;SDS011;322;48.846;9.230;2023-08-24T06:24:01;15.40;;;10.23;;
679;SDS011;322;48.846;9.230;2023-08-24T06:26:30;15.40;;;9.17;;
679;SDS011;322;48.846;9.230;2023-08-24T06:28:58;13.30;;;9.60;;
679;SDS011;322;48.846;9.230;2023-08-24T06:31:26;13.37;;;9.37;;
679;SDS011;322;48.846;9.230;2023-08-24T06:33:55;12.93;;;8.83;;
679;SDS011;322;48.846;9.230;2023-08-24T06:36:23;13.63;;;10.00;;
679;SDS011;322;48.846;9.230;2023-08-24T06:38:51;15.23;;;10.03;;
679;SDS011;322;48.846;9.230;2023-08-24T06:41:19;15.70;;;8.93;;
679;SDS011;322;48.846;9.230;2023-08-24T06:43:47;15.20;;;9.67;;
679;SDS011;322;48.846;9.230;2023-08-24T06:46:15;14.80;;;10.00;;
679;SDS011;322;48.846;9.230;2023-08-24T06:48:43;16.97;;;9.20;;
679;SDS011;322;48.846;9.230;2023-08-24T06:51:13;13.70;;;10.00;;
679;SDS011;322;48.846;9.230;2023-08-24T06:53:41;17.97;;;9.20;;
679;SDS011;322;48.846;9.230;2023-08-24T06:56:10;13.47;;;8.90;;
679;SDS011;322;48.846;9.230;2023-08-24T06:58:38;17.30;;;8.13;;
679;SDS011;322;48.846;9.230;2023-08-24T07:01:06;17.87;;;9.80;;
679;SDS011;322;48.846;9.230;2023-08-24T07:03:34;13.87;;;8.70;;
679;SDS011;322;48.846;9.230;2023-08-24T07:06:02;18.37;;;8.50;;
679;SDS011;322;48.846;9.230;2023-08-24T07:08:34;14.43;;;8.83;;
679;SDS011;322;48.846;9.230;2023-08-24T07:11:03;14.40;;;8.40;;
679;SDS011;322;48.846;9.230;2023-08-24T07:13:31;14.33;;;8.63;;
679;SDS011;322;48.846;9.230;2023-08-24T07:16:00;13.93;;;7.27;;
679;SDS011;322;48.846;9.230;2023-08-24T07:18:30;12.50;;;7.70;;
679;SDS011;322;48.846;9.230;2023-08-24T07:20:58;11.33;;;8.10;;
679;SDS011;322;48.846;9.230;2023-08-24T07:23:26;14.03;;;8.07;;
679;SDS011;322;48.846;9.230;2023-08-24T07:25:56;11.50;;;7.40;;
679;SDS011;322;48.846;9.230;2023-08-24T07:28:24;14.00;;;7.63;;
679;SDS011;322;48.846;9.230;2023-08-24T07:30:52;15.80;;;6.80;;
679;SDS011;322;48.846;9.230;2023-08-24T07:33:22;15.33;;;7.63;;
679;SDS011;322;48.846;9.230;2023-08-24T07:35:51;14.90;;;7.87;;
679;SDS011;322;48.846;9.230;2023-08-24T07:38:19;13.30;;;7.90;;
679;SDS011;322;48.846;9.230;2023-08-24T07:40:47;11.73;;;7.20;;
679;SDS011;322;48.846;9.230;2023-08-24T07:43:16;13.80;;;7.70;;
679;SDS011;322;48.846;9.230;2023-08-24T07:45:44;15.23;;;7.27;;
679;SDS011;322;48.846;9.230;2023-08-24T07:48:12;13.70;;;8.00;;
679;SDS011;322;48.846;9.230;2023-08-24T07:50:41;13.30;;;8.50;;
679;SDS011;322;48.846;9.230;2023-08-24T07:53:09;15.03;;;8.90;;
679;SDS011;322;48.846;9.230;2023-08-24T07:55:37;12.07;;;6.83;;
679;SDS011;322;48.846;9.230;2023-08-24T07:58:05;18.13;;;9.00;;
679;SDS011;322;48.846;9.230;2023-08-24T08:00:34;15.60;;;7.87;;
679;SDS011;322;48.846;9.230;2023-08-24T08:03:03;14.10;;;8.47;;
679;SDS011;322;48.846;9.230;2023-08-24T08:05:31;14.03;;;7.53;;
679;SDS011;322;48.846;9.230;2023-08-24T08:07:59;12.90;;;8.20;;
679;SDS011;322;48.846;9.230;2023-08-24T08:10:27;13.27;;;7.47;;
679;SDS011;322;48.846;9.230;2023-08-24T08:12:55;12.03;;;7.33;;
679;SDS011;322;48.846;9.230;2023-08-24T08:15:23;15.50;;;7.50;;
679;SDS011;322;48.846;9.230;2023-08-24T08:17:53;15.30;;;8.17;;
679;SDS011;322;48.846;9.230;2023-08-24T08:20:21;11.63;;;7.30;;
679;SDS011;322;48.846;9.230;2023-08-24T08:22:49;13.50;;;6.60;;
679;SDS011;322;48.846;9.230;2023-08-24T08:25:17;15.93;;;7.77;;
679;SDS011;322;48.846;9.230;2023-08-24T08:27:48;13.57;;;7.63;;
679;SDS011;322;48.846;9.230;2023-08-24T08:30:17;11.30;;;7.00;;
679;SDS011;322;48.846;9.230;2023-08-24T08:32:46;12.47;;;7.47;;
679;SDS011;322;48.846;9.230;2023-08-24T08:35:17;11.37;;;7.07;;
679;SDS011;322;48.846;9.230;2023-08-24T08:37:45;12.80;;;7.77;;
679;SDS011;322;48.846;9.230;2023-08-24T08:40:16;14.10;;;7.20;;
679;SDS011;322;48.846;9.230;2023-08-24T08:42:45;11.70;;;6.97;;
679;SDS011;322;48.846;9.230;2023-08-24T08:45:13;14.03;;;6.50;;
679;SDS011;322;48.846;9.230;2023-08-24T08:47:41;12.23;;;8.50;;
679;SDS011;322;48.846;9.230;2023-08-24T08:50:09;12.47;;;7.60;;
679;SDS011;322;48.846;9.230;2023-08-24T08:52:40;11.60;;;7.37;;
679;SDS011;322;48.846;9.230;2023-08-24T08:55:08;12.03;;;6.53;;
679;SDS011;322;48.846;9.230;2023-08-24T08:57:37;12.30;;;6.60;;
679;SDS011;322;48.846;9.230;2023-08-24T09:00:08;11.40;;;6.77;;
679;SDS011;322;48.846;9.230;2023-08-24T09:02:39;9.97;;;6.30;;
679;SDS011;322;48.846;9.230;2023-08-24T09:05:11;10.67;;;6.00;;
679;SDS011;322;48.846;9.230;2023-08-24T09:07:41;11.23;;;6.80;;
679;SDS011;322;48.846;9.230;2023-08-24T09:10:09;15.57;;;6.23;;
679;SDS011;322;48.846;9.230;2023-08-24T09:12:37;12.03;;;6.70;;
679;SDS011;322;48.846;9.230;2023-08-24T09:15:06;13.83;;;6.80;;
679;SDS011;322;48.846;9.230;2023-08-24T09:17:34;10.33;;;5.83;;
679;SDS011;322;48.846;9.230;2023-08-24T09:20:05;12.10;;;6.30;;
679;SDS011;322;48.846;9.230;2023-08-24T09:22:34;14.10;;;7.23;;
679;SDS011;322;48.846;9.230;2023-08-24T09:25:05;11.07;;;6.43;;
679;SDS011;322;48.846;9.230;2023-08-24T09:27:34;12.80;;;6.50;;
679;SDS011;322;48.846;9.230;2023-08-24T09:30:03;11.73;;;6.40;;
679;SDS011;322;48.846;9.230;2023-08-24T09:32:32;13.00;;;6.80;;
679;SDS011;322;48.846;9.230;2023-08-24T09:35:02;11.70;;;6.50;;
679;SDS011;322;48.846;9.230;2023-08-24T09:37:32;15.00;;;6.63;;
679;SDS011;322;48.846;9.230;2023-08-24T09:40:02;15.67;;;6.57;;
679;SDS011;322;48.846;9.230;2023-08-24T09:42:38;10.80;;;6.10;;
679;SDS011;322;48.846;9.230;2023-08-24T09:45:09;12.17;;;6.50;;
679;SDS011;322;48.846;9.230;2023-08-24T09:47:39;13.33;;;6.33;;
679;SDS011;322;48.846;9.230;2023-08-24T09:50:12;12.60;;;5.67;;
679;SDS011;322;48.846;9.230;2023-08-24T09:52:40;13.20;;;5.57;;
679;SDS011;322;48.846;9.230;2023-08-24T09:55:10;11.33;;;5.73;;
679;SDS011;322;48.846;9.230;2023-08-24T09:57:40;9.57;;;5.40;;
679;SDS011;322;48.846;9.230;2023-08-24T10:00:10;10.30;;;5.20;;
679;SDS011;322;48.846;9.230;2023-08-24T10:02:44;11.57;;;5.53;;
679;SDS011;322;48.846;9.230;2023-08-24T10:05:19;13.13;;;6.10;;
679;SDS011;322;48.846;9.230;2023-08-24T10:08:04;10.50;;;5.67;;
679;SDS011;322;48.846;9.230;2023-08-24T10:10:34;11.43;;;5.57;;
679;SDS011;322;48.846;9.230;2023-08-24T10:13:06;11.30;;;5.53;;
679;SDS011;322;48.846;9.230;2023-08-24T10:15:38;12.13;;;5.87;;
679;SDS011;322;48.846;9.230;2023-08-24T10:18:13;10.53;;;5.73;;
679;SDS011;322;48.846;9.230;2023-08-24T10:20:42;10.30;;;5.47;;
679;SDS011;322;48.846;9.230;2023-08-24T10:23:11;10.00;;;5.40;;
679;SDS011;322;48.846;9.230;2023-08-24T10:25:42;11.57;;;6.50;;
679;SDS011;322;48.846;9.230;2023-08-24T10:28:12;10.97;;;6.90;;
679;SDS011;322;48.846;9.230;2023-08-24T10:30:41;9.37;;;6.10;;
679;SDS011;322;48.846;9.230;2023-08-24T10:33:11;10.00;;;5.90;;
679;SDS011;322;48.846;9.230;2023-08-24T10:35:41;11.33;;;6.30;;
679;SDS011;322;48.846;9.230;2023-08-24T10:38:18;11.27;;;6.40;;
679;SDS011;322;48.846;9.230;2023-08-24T10:40:51;11.50;;;6.50;;
679;SDS011;322;48.846;9.230;2023-08-24T10:43:20;9.77;;;6.07;;
679;SDS011;322;48.846;9.230;2023-08-24T10:45:56;10.10;;;6.70;;
679;SDS011;322;48.846;9.230;2023-08-24T10:48:26;10.80;;;6.97;;
679;SDS011;322;48.846;9.230;2023-08-24T10:53:51;12.80;;;6.17;;
679;SDS011;322;48.846;9.230;2023-08-24T10:56:21;9.70;;;5.70;;
679;SDS011;322;48.846;9.230;2023-08-24T10:59:10;9.53;;;6.53;;
679;SDS011;322;48.846;9.230;2023-08-24T11:01:40;10.97;;;5.90;;
679;SDS011;322;48.846;9.230;2023-08-24T11:04:10;10.20;;;6.27;;
679;SDS011;322;48.846;9.230;2023-08-24T11:06:51;13.23;;;6.43;;
679;SDS011;322;48.846;9.230;2023-08-24T11:09:23;9.97;;;5.80;;
679;SDS011;322;48.846;9.230;2023-08-24T11:11:55;10.10;;;6.00;;
679;SDS011;322;48.846;9.230;2023-08-24T11:14:26;10.23;;;6.40;;
679;SDS011;322;48.846;9.230;2023-08-24T11:16:57;10.70;;;6.33;;
679;SDS011;322;48.846;9.230;2023-08-24T11:19:26;9.20;;;6.37;;
679;SDS011;322;48.846;9.230;2023-08-24T11:21:56;10.90;;;6.73;;
679;SDS011;322;48.846;9.230;2023-08-24T11:24:25;12.47;;;6.63;;
679;SDS011;322;48.846;9.230;2023-08-24T11:26:54;10.63;;;6.93;;
679;SDS011;322;48.846;9.230;2023-08-24T11:29:24;11.00;;;6.47;;
679;SDS011;322;48.846;9.230;2023-08-24T11:31:53;9.57;;;6.17;;
679;SDS011;322;48.846;9.230;2023-08-24T11:34:21;12.70;;;6.00;;
679;SDS011;322;48.846;9.230;2023-08-24T11:36:49;9.43;;;6.00;;
679;SDS011;322;48.846;9.230;2023-08-24T11:39:18;10.60;;;6.50;;
679;SDS011;322;48.846;9.230;2023-08-24T11:41:58;10.20;;;6.23;;
679;SDS011;322;48.846;9.230;2023-08-24T11:44:29;12.10;;;6.43;;
679;SDS011;322;48.846;9.230;2023-08-24T11:47:13;10.60;;;6.30;;
679;SDS011;322;48.846;9.230;2023-08-24T11:49:41;9.63;;;6.70;;
679;SDS011;322;48.846;9.230;2023-08-24T11:52:09;9.83;;;6.40;;
679;SDS011;322;48.846;9.230;2023-08-24T11:54:37;8.63;;;5.60;;
679;SDS011;322;48.846;9.230;2023-08-24T11:57:07;11.90;;;6.33;;
679;SDS011;322;48.846;9.230;2023-08-24T11:59:37;9.70;;;6.43;;
679;SDS011;322;48.846;9.230;2023-08-24T12:02:06;10.30;;;6.20;;
679;SDS011;322;48.846;9.230;2023-08-24T12:04:37;8.87;;;6.20;;
679;SDS011;322;48.846;9.230;2023-08-24T12:07:08;13.00;;;6.33;;
679;SDS011;322;48.846;9.230;2023-08-24T12:09:37;9.13;;;5.80;;
679;SDS011;322;48.846;9.230;2023-08-24T12:12:05;11.97;;;6.33;;
679;SDS011;322;48.846;9.230;2023-08-24T12:14:41;13.77;;;6.93;;
679;SDS011;322;48.846;9.230;2023-08-24T12:17:09;12.03;;;6.57;;
679;SDS011;322;48.846;9.230;2023-08-24T12:19:40;10.53;;;6.40;;
679;SDS011;322;48.846;9.230;2023-08-24T12:22:12;14.30;;;6.37;;
679;SDS011;322;48.846;9.230;2023-08-24T12:24:43;13.67;;;6.13;;
679;SDS011;322;48.846;9.230;2023-08-24T12:27:17;10.20;;;6.60;;
679;SDS011;322;48.846;9.230;2023-08-24T12:29:47;10.60;;;6.37;;
679;SDS011;322;48.846;9.230;2023-08-24T12:32:15;10.30;;;6.50;;
679;SDS011;322;48.846;9.230;2023-08-24T12:34:46;9.03;;;6.13;;
679;SDS011;322;48.846;9.230;2023-08-24T12:37:14;10.27;;;5.73;;
679;SDS011;322;48.846;9.230;2023-08-24T12:39:42;9.80;;;6.43;;
679;SDS011;322;48.846;9.230;2023-08-24T12:42:10;11.73;;;6.70;;
679;SDS011;322;48.846;9.230;2023-08-24T12:44:38;12.27;;;7.67;;
679;SDS011;322;48.846;9.230;2023-08-24T12:47:07;11.20;;;7.03;;
679;SDS011;322;48.846;9.230;2023-08-24T12:49:35;15.20;;;11.93;;
679;SDS011;322;48.846;9.230;2023-08-24T12:52:03;12.67;;;6.40;;
679;SDS011;322;48.846;9.230;2023-08-24T12:54:32;14.40;;;7.30;;
679;SDS011;322;48.846;9.230;2023-08-24T12:57:00;12.53;;;7.53;;
679;SDS011;322;48.846;9.230;2023-08-24T12:59:27;10.80;;;6.40;;
679;SDS011;322;48.846;9.230;2023-08-24T13:01:55;9.37;;;5.90;;
679;SDS011;322;48.846;9.230;2023-08-24T13:04:25;11.38;;;6.80;;
679;SDS011;322;48.846;9.230;2023-08-24T13:06:54;12.75;;;6.43;;
679;SDS011;322;48.846;9.230;2023-08-24T13:09:22;9.00;;;5.57;;
679;SDS011;322;48.846;9.230;2023-08-24T13:11:50;10.40;;;6.47;;
679;SDS011;322;48.846;9.230;2023-08-24T13:14:18;10.17;;;6.20;;
679;SDS011;322;48.846;9.230;2023-08-24T13:16:47;9.70;;;6.10;;
679;SDS011;322;48.846;9.230;2023-08-24T13:19:15;11.13;;;6.47;;
679;SDS011;322;48.846;9.230;2023-08-24T13:21:45;12.03;;;6.60;;
679;SDS011;322;48.846;9.230;2023-08-24T13:24:13;11.17;;;6.50;;
679;SDS011;322;48.846;9.230;2023-08-24T13:26:40;10.83;;;6.23;;
679;SDS011;322;48.846;9.230;2023-08-24T13:29:09;11.80;;;6.07;;
679;SDS011;322;48.846;9.230;2023-08-24T13:31:37;13.07;;;6.77;;
679;SDS011;322;48.846;9.230;2023-08-24T13:34:04;11.13;;;6.17;;
679;SDS011;322;48.846;9.230;2023-08-24T13:36:33;11.73;;;6.23;;
679;SDS011;322;48.846;9.230;2023-08-24T13:39:03;10.50;;;5.50;;
679;SDS011;322;48.846;9.230;2023-08-24T13:41:31;12.13;;;6.00;;
679;SDS011;322;48.846;9.230;2023-08-24T13:43:59;10.88;;;5.13;;
679;SDS011;322;48.846;9.230;2023-08-24T13:46:27;11.95;;;5.30;;
679;SDS011;322;48.846;9.230;2023-08-24T13:48:55;15.80;;;5.97;;
679;SDS011;322;48.846;9.230;2023-08-24T13:51:23;9.85;;;5.30;;
679;SDS011;322;48.846;9.230;2023-08-24T13:53:51;15.57;;;6.20;;
679;SDS011;322;48.846;9.230;2023-08-24T13:56:20;12.57;;;5.82;;
679;SDS011;322;48.846;9.230;2023-08-24T13:58:48;14.20;;;6.10;;
679;SDS011;322;48.846;9.230;2023-08-24T14:01:16;9.68;;;4.97;;
679;SDS011;322;48.846;9.230;2023-08-24T14:03:44;11.63;;;6.57;;
679;SDS011;322;48.846;9.230;2023-08-24T14:06:12;10.75;;;5.78;;
679;SDS011;322;48.846;9.230;2023-08-24T14:08:40;11.35;;;6.93;;
679;SDS011;322;48.846;9.230;2023-08-24T14:11:08;16.52;;;7.22;;
679;SDS011;322;48.846;9.230;2023-08-24T14:13:41;10.20;;;5.43;;
679;SDS011;322;48.846;9.230;2023-08-24T14:16:09;13.18;;;5.40;;
679;SDS011;322;48.846;9.230;2023-08-24T14:18:37;11.07;;;5.60;;
679;SDS011;322;48.846;9.230;2023-08-24T14:21:05;11.63;;;5.43;;
679;SDS011;322;48.846;9.230;2023-08-24T14:23:37;13.77;;;6.20;;
679;SDS011;322;48.846;9.230;2023-08-24T14:26:05;12.97;;;5.60;;
679;SDS011;322;48.846;9.230;2023-08-24T14:28:50;13.20;;;6.70;;
679;SDS011;322;48.846;9.230;2023-08-24T14:31:21;11.33;;;6.20;;
679;SDS011;322;48.846;9.230;2023-08-24T14:33:50;11.07;;;6.07;;
679;SDS011;322;48.846;9.230;2023-08-24T14:36:19;11.03;;;5.50;;
679;SDS011;322;48.846;9.230;2023-08-24T14:38:47;13.30;;;6.20;;
679;SDS011;322;48.846;9.230;2023-08-24T14:41:18;13.00;;;6.70;;
679;SDS011;322;48.846;9.230;2023-08-24T14:43:46;11.70;;;5.87;;
679;SDS011;322;48.846;9.230;2023-08-24T14:46:15;14.27;;;6.93;;
679;SDS011;322;48.846;9.230;2023-08-24T14:48:43;14.47;;;6.20;;
679;SDS011;322;48.846;9.230;2023-08-24T14:51:11;11.20;;;6.10;;
679;SDS011;322;48.846;9.230;2023-08-24T14:53:39;14.63;;;6.13;;
679;SDS011;322;48.846;9.230;2023-08-24T14:56:08;17.17;;;6.77;;
679;SDS011;322;48.846;9.230;2023-08-24T14:58:37;13.30;;;6.97;;
679;SDS011;322;48.846;9.230;2023-08-24T15:01:05;15.47;;;6.70;;
679;SDS011;322;48.846;9.230;2023-08-24T15:03:35;31.17;;;8.30;;
679;SDS011;322;48.846;9.230;2023-08-24T15:06:04;24.53;;;10.30;;
679;SDS011;322;48.846;9.230;2023-08-24T15:08:32;20.90;;;8.80;;
679;SDS011;322;48.846;9.230;2023-08-24T15:11:01;14.27;;;7.87;;
679;SDS011;322;48.846;9.230;2023-08-24T15:13:33;14.67;;;6.83;;
679;SDS011;322;48.846;9.230;2023-08-24T15:16:01;18.03;;;7.73;;
679;SDS011;322;48.846;9.230;2023-08-24T15:18:29;12.97;;;7.17;;
679;SDS011;322;48.846;9.230;2023-08-24T15:20:58;15.87;;;10.27;;
679;SDS011;322;48.846;9.230;2023-08-24T15:23:27;17.87;;;12.50;;
679;SDS011;322;48.846;9.230;2023-08-24T15:25:57;18.67;;;10.67;;
679;SDS011;322;48.846;9.230;2023-08-24T15:28:27;19.30;;;12.10;;
679;SDS011;322;48.846;9.230;2023-08-24T15:31:03;14.00;;;9.00;;
679;SDS011;322;48.846;9.230;2023-08-24T15:33:31;17.13;;;8.87;;
679;SDS011;322;48.846;9.230;2023-08-24T15:36:00;16.20;;;8.57;;
679;SDS011;322;48.846;9.230;2023-08-24T15:38:29;14.37;;;8.80;;
679;SDS011;322;48.846;9.230;2023-08-24T15:40:58;13.23;;;8.03;;